sensor_id;sensor_type;location;lat;lon;timestamp;P1;durP1;ratioP1;P2;durP2;ratioP2
19278;SDS011;9773;47.062;15.446;2022-12-11T00:02:03;0.70;;;0.70;;
19278;SDS011;9773;47.062;15.446;2022-12-11T00:04:29;0.80;;;0.80;;
19278;SDS011;9773;47.062;15.446;2022-12-11T00:06:55;0.80;;;0.80;;
19278;SDS011;9773;47.062;15.446;2022-12-11T00:09:21;0.77;;;0.77;;
19278;SDS011;9773;47.062;15.446;2022-12-11T00:11:47;0.83;;;0.83;;
19278;SDS011;9773;47.062;15.446;2022-12-11T00:14:14;0.80;;;0.80;;
19278;SDS011;9773;47.062;15.446;2022-12-11T00:16:40;1.20;;;1.20;;
19278;SDS011;9773;47.062;15.446;2022-12-11T00:19:06;1.10;;;1.10;;
19278;SDS011;9773;47.062;15.446;2022-12-11T00:21:32;0.90;;;0.90;;
19278;SDS011;9773;47.062;15.446;2022-12-11T00:23:58;0.80;;;0.80;;
19278;SDS011;9773;47.062;15.446;2022-12-11T00:26:24;0.90;;;0.90;;
19278;SDS011;9773;47.062;15.446;2022-12-11T00:28:51;0.90;;;0.90;;
19278;SDS011;9773;47.062;15.446;2022-12-11T00:31:20;2.00;;;1.20;;
19278;SDS011;9773;47.062;15.446;2022-12-11T00:33:48;0.83;;;0.83;;
19278;SDS011;9773;47.062;15.446;2022-12-11T00:36:16;1.20;;;1.10;;
19278;SDS011;9773;47.062;15.446;2022-12-11T00:38:44;1.10;;;1.10;;
19278;SDS011;9773;47.062;15.446;2022-12-11T00:41:11;1.00;;;1.00;;
19278;SDS011;9773;47.062;15.446;2022-12-11T00:43:37;0.90;;;0.90;;
19278;SDS011;9773;47.062;15.446;2022-12-11T00:46:04;0.80;;;0.80;;
19278;SDS011;9773;47.062;15.446;2022-12-11T00:48:30;0.97;;;0.97;;
19278;SDS011;9773;47.062;15.446;2022-12-11T00:50:56;1.00;;;0.90;;
19278;SDS011;9773;47.062;15.446;2022-12-11T00:53:22;0.80;;;0.80;;
19278;SDS011;9773;47.062;15.446;2022-12-11T00:55:48;0.90;;;0.90;;
19278;SDS011;9773;47.062;15.446;2022-12-11T00:58:15;0.80;;;0.80;;
19278;SDS011;9773;47.062;15.446;2022-12-11T01:00:41;0.77;;;0.77;;
19278;SDS011;9773;47.062;15.446;2022-12-11T01:03:08;1.00;;;1.00;;
19278;SDS011;9773;47.062;15.446;2022-12-11T01:05:35;0.90;;;0.90;;
19278;SDS011;9773;47.062;15.446;2022-12-11T01:08:01;1.00;;;1.00;;
19278;SDS011;9773;47.062;15.446;2022-12-11T01:10:30;0.90;;;0.90;;
19278;SDS011;9773;47.062;15.446;2022-12-11T01:13:00;0.57;;;0.57;;
19278;SDS011;9773;47.062;15.446;2022-12-11T01:15:33;0.80;;;0.80;;
19278;SDS011;9773;47.062;15.446;2022-12-11T01:18:03;0.90;;;0.90;;
19278;SDS011;9773;47.062;15.446;2022-12-11T01:20:29;1.10;;;1.10;;
19278;SDS011;9773;47.062;15.446;2022-12-11T01:22:56;0.77;;;0.77;;
19278;SDS011;9773;47.062;15.446;2022-12-11T01:25:24;0.97;;;0.97;;
19278;SDS011;9773;47.062;15.446;2022-12-11T01:27:51;1.00;;;1.00;;
19278;SDS011;9773;47.062;15.446;2022-12-11T01:30:20;1.67;;;0.73;;
19278;SDS011;9773;47.062;15.446;2022-12-11T01:32:47;0.93;;;0.93;;
19278;SDS011;9773;47.062;15.446;2022-12-11T01:35:14;1.03;;;1.03;;
19278;SDS011;9773;47.062;15.446;2022-12-11T01:37:40;0.77;;;0.77;;
19278;SDS011;9773;47.062;15.446;2022-12-11T01:40:06;0.90;;;0.90;;
19278;SDS011;9773;47.062;15.446;2022-12-11T01:42:33;1.07;;;1.07;;
19278;SDS011;9773;47.062;15.446;2022-12-11T01:48:24;1.00;;;1.00;;
19278;SDS011;9773;47.062;15.446;2022-12-11T01:51:03;0.80;;;0.80;;
19278;SDS011;9773;47.062;15.446;2022-12-11T01:53:37;0.60;;;0.60;;
19278;SDS011;9773;47.062;15.446;2022-12-11T01:56:07;0.87;;;0.87;;
19278;SDS011;9773;47.062;15.446;2022-12-11T01:58:39;0.70;;;0.70;;
19278;SDS011;9773;47.062;15.446;2022-12-11T02:01:10;0.80;;;0.80;;
19278;SDS011;9773;47.062;15.446;2022-12-11T02:03:38;0.90;;;0.90;;
19278;SDS011;9773;47.062;15.446;2022-12-11T02:06:04;1.00;;;1.00;;
19278;SDS011;9773;47.062;15.446;2022-12-11T02:08:30;0.80;;;0.80;;
19278;SDS011;9773;47.062;15.446;2022-12-11T02:11:07;1.00;;;1.00;;
19278;SDS011;9773;47.062;15.446;2022-12-11T02:13:43;0.90;;;0.90;;
19278;SDS011;9773;47.062;15.446;2022-12-11T02:19:04;0.70;;;0.70;;
19278;SDS011;9773;47.062;15.446;2022-12-11T02:21:44;0.70;;;0.70;;
19278;SDS011;9773;47.062;15.446;2022-12-11T02:29:44;0.97;;;0.93;;
19278;SDS011;9773;47.062;15.446;2022-12-11T02:32:36;0.70;;;0.70;;
19278;SDS011;9773;47.062;15.446;2022-12-11T02:35:14;1.00;;;1.00;;
19278;SDS011;9773;47.062;15.446;2022-12-11T02:40:55;0.60;;;0.60;;
19278;SDS011;9773;47.062;15.446;2022-12-11T02:43:24;0.90;;;0.90;;
19278;SDS011;9773;47.062;15.446;2022-12-11T02:45:51;0.80;;;0.80;;
19278;SDS011;9773;47.062;15.446;2022-12-11T02:48:17;0.80;;;0.80;;
19278;SDS011;9773;47.062;15.446;2022-12-11T02:50:46;0.43;;;0.43;;
19278;SDS011;9773;47.062;15.446;2022-12-11T02:53:16;0.83;;;0.83;;
19278;SDS011;9773;47.062;15.446;2022-12-11T02:55:46;0.60;;;0.60;;
19278;SDS011;9773;47.062;15.446;2022-12-11T02:58:19;0.53;;;0.53;;
19278;SDS011;9773;47.062;15.446;2022-12-11T03:00:49;0.40;;;0.40;;
19278;SDS011;9773;47.062;15.446;2022-12-11T03:03:17;0.73;;;0.73;;
19278;SDS011;9773;47.062;15.446;2022-12-11T03:05:43;0.70;;;0.70;;
19278;SDS011;9773;47.062;15.446;2022-12-11T03:08:10;0.73;;;0.73;;
19278;SDS011;9773;47.062;15.446;2022-12-11T03:10:36;0.77;;;0.77;;
19278;SDS011;9773;47.062;15.446;2022-12-11T03:13:02;0.77;;;0.77;;
19278;SDS011;9773;47.062;15.446;2022-12-11T03:15:40;0.77;;;0.70;;
19278;SDS011;9773;47.062;15.446;2022-12-11T03:22:10;0.73;;;0.73;;
19278;SDS011;9773;47.062;15.446;2022-12-11T03:24:06;0.50;;;0.50;;
19278;SDS011;9773;47.062;15.446;2022-12-11T03:26:47;0.87;;;0.83;;
19278;SDS011;9773;47.062;15.446;2022-12-11T03:29:24;0.80;;;0.80;;
19278;SDS011;9773;47.062;15.446;2022-12-11T03:31:56;0.63;;;0.63;;
19278;SDS011;9773;47.062;15.446;2022-12-11T03:34:30;1.07;;;0.87;;
19278;SDS011;9773;47.062;15.446;2022-12-11T03:37:07;0.77;;;0.77;;
19278;SDS011;9773;47.062;15.446;2022-12-11T03:39:37;0.60;;;0.60;;
19278;SDS011;9773;47.062;15.446;2022-12-11T03:42:06;0.63;;;0.63;;
19278;SDS011;9773;47.062;15.446;2022-12-11T03:44:36;0.70;;;0.70;;
19278;SDS011;9773;47.062;15.446;2022-12-11T03:47:03;0.60;;;0.60;;
19278;SDS011;9773;47.062;15.446;2022-12-11T03:49:35;1.00;;;1.00;;
19278;SDS011;9773;47.062;15.446;2022-12-11T03:52:05;0.80;;;0.80;;
19278;SDS011;9773;47.062;15.446;2022-12-11T03:54:35;1.03;;;1.03;;
19278;SDS011;9773;47.062;15.446;2022-12-11T03:57:02;0.70;;;0.70;;
19278;SDS011;9773;47.062;15.446;2022-12-11T03:59:30;0.90;;;0.90;;
19278;SDS011;9773;47.062;15.446;2022-12-11T04:01:55;1.00;;;1.00;;
19278;SDS011;9773;47.062;15.446;2022-12-11T04:04:21;0.60;;;0.60;;
19278;SDS011;9773;47.062;15.446;2022-12-11T04:06:47;0.87;;;0.87;;
19278;SDS011;9773;47.062;15.446;2022-12-11T04:09:13;0.80;;;0.80;;
19278;SDS011;9773;47.062;15.446;2022-12-11T04:11:39;0.67;;;0.67;;
19278;SDS011;9773;47.062;15.446;2022-12-11T04:14:11;0.73;;;0.73;;
19278;SDS011;9773;47.062;15.446;2022-12-11T04:16:57;0.77;;;0.77;;
19278;SDS011;9773;47.062;15.446;2022-12-11T04:19:24;0.80;;;0.80;;
19278;SDS011;9773;47.062;15.446;2022-12-11T04:22:11;0.70;;;0.70;;
19278;SDS011;9773;47.062;15.446;2022-12-11T04:24:56;0.97;;;0.97;;
19278;SDS011;9773;47.062;15.446;2022-12-11T04:27:22;1.00;;;1.00;;
19278;SDS011;9773;47.062;15.446;2022-12-11T04:30:09;0.87;;;0.87;;
19278;SDS011;9773;47.062;15.446;2022-12-11T04:32:37;1.07;;;1.07;;
19278;SDS011;9773;47.062;15.446;2022-12-11T04:35:04;0.97;;;0.97;;
19278;SDS011;9773;47.062;15.446;2022-12-11T04:37:31;0.90;;;0.90;;
19278;SDS011;9773;47.062;15.446;2022-12-11T04:39:57;0.90;;;0.90;;
19278;SDS011;9773;47.062;15.446;2022-12-11T04:42:23;1.00;;;1.00;;
19278;SDS011;9773;47.062;15.446;2022-12-11T04:44:49;1.10;;;1.10;;
19278;SDS011;9773;47.062;15.446;2022-12-11T04:47:15;1.23;;;1.00;;
19278;SDS011;9773;47.062;15.446;2022-12-11T04:49:41;1.30;;;1.30;;
19278;SDS011;9773;47.062;15.446;2022-12-11T04:52:07;1.10;;;1.10;;
19278;SDS011;9773;47.062;15.446;2022-12-11T04:54:36;1.20;;;1.20;;
19278;SDS011;9773;47.062;15.446;2022-12-11T04:57:02;1.13;;;1.13;;
19278;SDS011;9773;47.062;15.446;2022-12-11T04:59:28;1.00;;;1.00;;
19278;SDS011;9773;47.062;15.446;2022-12-11T05:01:55;1.20;;;1.20;;
19278;SDS011;9773;47.062;15.446;2022-12-11T05:04:21;1.00;;;1.00;;
19278;SDS011;9773;47.062;15.446;2022-12-11T05:06:48;1.13;;;1.13;;
19278;SDS011;9773;47.062;15.446;2022-12-11T05:09:14;1.30;;;1.30;;
19278;SDS011;9773;47.062;15.446;2022-12-11T05:11:40;1.30;;;1.30;;
19278;SDS011;9773;47.062;15.446;2022-12-11T05:14:06;1.20;;;1.20;;
19278;SDS011;9773;47.062;15.446;2022-12-11T05:16:32;1.10;;;1.10;;
19278;SDS011;9773;47.062;15.446;2022-12-11T05:18:58;1.30;;;1.30;;
19278;SDS011;9773;47.062;15.446;2022-12-11T05:21:24;1.20;;;1.20;;
19278;SDS011;9773;47.062;15.446;2022-12-11T05:23:49;0.97;;;0.97;;
19278;SDS011;9773;47.062;15.446;2022-12-11T05:26:17;1.00;;;1.00;;
19278;SDS011;9773;47.062;15.446;2022-12-11T05:28:44;1.03;;;1.03;;
19278;SDS011;9773;47.062;15.446;2022-12-11T05:31:18;1.33;;;1.33;;
19278;SDS011;9773;47.062;15.446;2022-12-11T05:33:45;1.13;;;1.13;;
19278;SDS011;9773;47.062;15.446;2022-12-11T05:36:16;1.00;;;1.00;;
19278;SDS011;9773;47.062;15.446;2022-12-11T05:38:48;1.40;;;1.40;;
19278;SDS011;9773;47.062;15.446;2022-12-11T05:41:17;0.93;;;0.93;;
19278;SDS011;9773;47.062;15.446;2022-12-11T05:43:44;1.10;;;1.10;;
19278;SDS011;9773;47.062;15.446;2022-12-11T05:46:14;0.90;;;0.90;;
19278;SDS011;9773;47.062;15.446;2022-12-11T05:48:41;1.00;;;1.00;;
19278;SDS011;9773;47.062;15.446;2022-12-11T05:51:11;1.13;;;1.13;;
19278;SDS011;9773;47.062;15.446;2022-12-11T05:53:39;1.10;;;1.10;;
19278;SDS011;9773;47.062;15.446;2022-12-11T05:56:09;1.10;;;1.10;;
19278;SDS011;9773;47.062;15.446;2022-12-11T05:58:36;1.03;;;1.00;;
19278;SDS011;9773;47.062;15.446;2022-12-11T06:01:12;1.03;;;0.80;;
19278;SDS011;9773;47.062;15.446;2022-12-11T06:03:43;1.00;;;1.00;;
19278;SDS011;9773;47.062;15.446;2022-12-11T06:06:09;1.10;;;1.10;;
19278;SDS011;9773;47.062;15.446;2022-12-11T06:08:35;0.97;;;0.97;;
19278;SDS011;9773;47.062;15.446;2022-12-11T06:11:01;0.90;;;0.90;;
19278;SDS011;9773;47.062;15.446;2022-12-11T06:13:27;0.80;;;0.80;;
19278;SDS011;9773;47.062;15.446;2022-12-11T06:15:54;1.00;;;1.00;;
19278;SDS011;9773;47.062;15.446;2022-12-11T06:18:19;1.10;;;1.10;;
19278;SDS011;9773;47.062;15.446;2022-12-11T06:20:46;1.13;;;1.13;;
19278;SDS011;9773;47.062;15.446;2022-12-11T06:23:11;1.03;;;1.03;;
19278;SDS011;9773;47.062;15.446;2022-12-11T06:25:38;1.00;;;1.00;;
19278;SDS011;9773;47.062;15.446;2022-12-11T06:28:03;1.10;;;1.10;;
19278;SDS011;9773;47.062;15.446;2022-12-11T06:30:29;0.90;;;0.90;;
19278;SDS011;9773;47.062;15.446;2022-12-11T06:32:56;1.17;;;1.17;;
19278;SDS011;9773;47.062;15.446;2022-12-11T06:35:23;1.30;;;1.30;;
19278;SDS011;9773;47.062;15.446;2022-12-11T06:37:49;4.00;;;1.30;;
19278;SDS011;9773;47.062;15.446;2022-12-11T06:40:15;2.77;;;1.53;;
19278;SDS011;9773;47.062;15.446;2022-12-11T06:42:41;0.90;;;0.90;;
19278;SDS011;9773;47.062;15.446;2022-12-11T06:45:07;1.00;;;1.00;;
19278;SDS011;9773;47.062;15.446;2022-12-11T06:47:33;1.10;;;1.10;;
19278;SDS011;9773;47.062;15.446;2022-12-11T06:50:00;1.00;;;1.00;;
19278;SDS011;9773;47.062;15.446;2022-12-11T06:52:26;1.30;;;1.30;;
19278;SDS011;9773;47.062;15.446;2022-12-11T06:54:53;1.30;;;1.30;;
19278;SDS011;9773;47.062;15.446;2022-12-11T06:57:19;1.10;;;1.10;;
19278;SDS011;9773;47.062;15.446;2022-12-11T06:59:45;1.27;;;1.27;;
19278;SDS011;9773;47.062;15.446;2022-12-11T07:02:11;1.27;;;1.27;;
19278;SDS011;9773;47.062;15.446;2022-12-11T07:04:38;0.90;;;0.90;;
19278;SDS011;9773;47.062;15.446;2022-12-11T07:07:07;1.30;;;1.30;;
19278;SDS011;9773;47.062;15.446;2022-12-11T07:09:34;1.10;;;1.10;;
19278;SDS011;9773;47.062;15.446;2022-12-11T07:12:01;1.10;;;1.10;;
19278;SDS011;9773;47.062;15.446;2022-12-11T07:14:28;1.00;;;1.00;;
19278;SDS011;9773;47.062;15.446;2022-12-11T07:16:55;1.10;;;1.10;;
19278;SDS011;9773;47.062;15.446;2022-12-11T07:19:21;1.20;;;1.20;;
19278;SDS011;9773;47.062;15.446;2022-12-11T07:21:47;1.40;;;1.40;;
19278;SDS011;9773;47.062;15.446;2022-12-11T07:24:13;1.23;;;1.23;;
19278;SDS011;9773;47.062;15.446;2022-12-11T07:26:38;1.80;;;1.70;;
19278;SDS011;9773;47.062;15.446;2022-12-11T07:29:04;1.60;;;1.50;;
19278;SDS011;9773;47.062;15.446;2022-12-11T07:31:30;1.50;;;1.40;;
19278;SDS011;9773;47.062;15.446;2022-12-11T07:33:57;1.57;;;1.50;;
19278;SDS011;9773;47.062;15.446;2022-12-11T07:36:25;1.53;;;1.50;;
19278;SDS011;9773;47.062;15.446;2022-12-11T07:38:51;1.67;;;1.57;;
19278;SDS011;9773;47.062;15.446;2022-12-11T07:41:18;1.30;;;1.30;;
19278;SDS011;9773;47.062;15.446;2022-12-11T07:43:44;1.53;;;1.43;;
19278;SDS011;9773;47.062;15.446;2022-12-11T07:46:14;1.60;;;1.60;;
19278;SDS011;9773;47.062;15.446;2022-12-11T07:48:42;2.00;;;1.90;;
19278;SDS011;9773;47.062;15.446;2022-12-11T07:51:10;2.00;;;1.90;;
19278;SDS011;9773;47.062;15.446;2022-12-11T07:53:44;2.00;;;1.80;;
19278;SDS011;9773;47.062;15.446;2022-12-11T07:56:11;2.03;;;1.90;;
19278;SDS011;9773;47.062;15.446;2022-12-11T07:58:36;1.90;;;1.80;;
19278;SDS011;9773;47.062;15.446;2022-12-11T08:01:09;1.90;;;1.80;;
19278;SDS011;9773;47.062;15.446;2022-12-11T08:03:37;2.20;;;2.00;;
19278;SDS011;9773;47.062;15.446;2022-12-11T08:06:03;1.90;;;1.80;;
19278;SDS011;9773;47.062;15.446;2022-12-11T08:08:29;2.27;;;2.10;;
19278;SDS011;9773;47.062;15.446;2022-12-11T08:10:55;2.30;;;2.10;;
19278;SDS011;9773;47.062;15.446;2022-12-11T08:13:28;2.30;;;2.10;;
19278;SDS011;9773;47.062;15.446;2022-12-11T08:15:54;1.70;;;1.60;;
19278;SDS011;9773;47.062;15.446;2022-12-11T08:18:20;1.80;;;1.70;;
19278;SDS011;9773;47.062;15.446;2022-12-11T08:20:46;2.00;;;1.90;;
19278;SDS011;9773;47.062;15.446;2022-12-11T08:23:12;1.90;;;1.80;;
19278;SDS011;9773;47.062;15.446;2022-12-11T08:25:38;2.20;;;2.00;;
19278;SDS011;9773;47.062;15.446;2022-12-11T08:28:04;1.90;;;1.80;;
19278;SDS011;9773;47.062;15.446;2022-12-11T08:30:29;2.70;;;2.50;;
19278;SDS011;9773;47.062;15.446;2022-12-11T08:32:56;2.17;;;2.07;;
19278;SDS011;9773;47.062;15.446;2022-12-11T08:35:23;2.73;;;2.10;;
19278;SDS011;9773;47.062;15.446;2022-12-11T08:37:50;1.73;;;1.63;;
19278;SDS011;9773;47.062;15.446;2022-12-11T08:40:15;1.70;;;1.60;;
19278;SDS011;9773;47.062;15.446;2022-12-11T08:42:41;1.60;;;1.50;;
19278;SDS011;9773;47.062;15.446;2022-12-11T08:45:07;2.33;;;1.90;;
19278;SDS011;9773;47.062;15.446;2022-12-11T08:47:34;1.80;;;1.70;;
19278;SDS011;9773;47.062;15.446;2022-12-11T08:50:00;1.93;;;1.83;;
19278;SDS011;9773;47.062;15.446;2022-12-11T08:52:26;2.00;;;1.90;;
19278;SDS011;9773;47.062;15.446;2022-12-11T08:54:52;1.93;;;1.80;;
19278;SDS011;9773;47.062;15.446;2022-12-11T08:57:17;1.80;;;1.70;;
19278;SDS011;9773;47.062;15.446;2022-12-11T08:59:43;1.23;;;1.23;;
19278;SDS011;9773;47.062;15.446;2022-12-11T09:02:10;2.00;;;1.87;;
19278;SDS011;9773;47.062;15.446;2022-12-11T09:04:37;1.67;;;1.67;;
19278;SDS011;9773;47.062;15.446;2022-12-11T09:07:03;1.73;;;1.63;;
19278;SDS011;9773;47.062;15.446;2022-12-11T09:09:28;1.37;;;1.37;;
19278;SDS011;9773;47.062;15.446;2022-12-11T09:11:54;1.50;;;1.50;;
19278;SDS011;9773;47.062;15.446;2022-12-11T09:14:20;2.00;;;1.50;;
19278;SDS011;9773;47.062;15.446;2022-12-11T09:16:47;1.47;;;1.37;;
19278;SDS011;9773;47.062;15.446;2022-12-11T09:19:13;1.73;;;1.63;;
19278;SDS011;9773;47.062;15.446;2022-12-11T09:21:39;2.00;;;1.90;;
19278;SDS011;9773;47.062;15.446;2022-12-11T09:24:07;1.73;;;1.63;;
19278;SDS011;9773;47.062;15.446;2022-12-11T09:26:34;1.53;;;1.43;;
19278;SDS011;9773;47.062;15.446;2022-12-11T09:29:01;2.13;;;1.93;;
19278;SDS011;9773;47.062;15.446;2022-12-11T09:31:29;1.60;;;1.50;;
19278;SDS011;9773;47.062;15.446;2022-12-11T09:33:58;2.17;;;1.57;;
19278;SDS011;9773;47.062;15.446;2022-12-11T09:36:26;1.77;;;1.67;;
19278;SDS011;9773;47.062;15.446;2022-12-11T09:38:52;1.80;;;1.70;;
19278;SDS011;9773;47.062;15.446;2022-12-11T09:43:49;1.70;;;1.60;;
19278;SDS011;9773;47.062;15.446;2022-12-11T09:46:35;1.70;;;1.60;;
19278;SDS011;9773;47.062;15.446;2022-12-11T09:49:03;1.90;;;1.70;;
19278;SDS011;9773;47.062;15.446;2022-12-11T09:51:41;1.60;;;1.50;;
19278;SDS011;9773;47.062;15.446;2022-12-11T09:54:10;1.93;;;1.80;;
19278;SDS011;9773;47.062;15.446;2022-12-11T09:59:12;2.13;;;1.70;;
19278;SDS011;9773;47.062;15.446;2022-12-11T10:01:51;1.33;;;1.33;;
19278;SDS011;9773;47.062;15.446;2022-12-11T10:07:56;1.63;;;1.53;;
19278;SDS011;9773;47.062;15.446;2022-12-11T10:12:54;2.00;;;1.90;;
19278;SDS011;9773;47.062;15.446;2022-12-11T10:15:39;1.13;;;1.13;;
19278;SDS011;9773;47.062;15.446;2022-12-11T10:18:22;1.67;;;1.60;;
19278;SDS011;9773;47.062;15.446;2022-12-11T10:20:53;1.77;;;1.67;;
19278;SDS011;9773;47.062;15.446;2022-12-11T10:23:22;1.60;;;1.60;;
19278;SDS011;9773;47.062;15.446;2022-12-11T10:25:57;1.67;;;1.57;;
19278;SDS011;9773;47.062;15.446;2022-12-11T10:28:29;2.00;;;1.60;;
19278;SDS011;9773;47.062;15.446;2022-12-11T10:33:58;1.70;;;1.70;;
19278;SDS011;9773;47.062;15.446;2022-12-11T10:36:27;1.67;;;1.57;;
19278;SDS011;9773;47.062;15.446;2022-12-11T10:38:55;1.83;;;1.73;;
19278;SDS011;9773;47.062;15.446;2022-12-11T10:41:55;1.90;;;1.80;;
19278;SDS011;9773;47.062;15.446;2022-12-11T10:44:18;1.70;;;1.60;;
19278;SDS011;9773;47.062;15.446;2022-12-11T10:46:45;1.90;;;1.80;;
19278;SDS011;9773;47.062;15.446;2022-12-11T10:49:23;1.70;;;1.60;;
19278;SDS011;9773;47.062;15.446;2022-12-11T10:51:51;1.67;;;1.57;;
19278;SDS011;9773;47.062;15.446;2022-12-11T10:54:32;1.97;;;1.87;;
19278;SDS011;9773;47.062;15.446;2022-12-11T10:57:09;2.20;;;2.00;;
19278;SDS011;9773;47.062;15.446;2022-12-11T10:59:40;1.90;;;1.80;;
19278;SDS011;9773;47.062;15.446;2022-12-11T11:02:52;2.03;;;1.93;;
19278;SDS011;9773;47.062;15.446;2022-12-11T11:05:09;1.80;;;1.70;;
19278;SDS011;9773;47.062;15.446;2022-12-11T11:07:38;1.97;;;1.87;;
19278;SDS011;9773;47.062;15.446;2022-12-11T11:12:42;1.53;;;1.53;;
19278;SDS011;9773;47.062;15.446;2022-12-11T11:15:21;1.87;;;1.77;;
19278;SDS011;9773;47.062;15.446;2022-12-11T11:17:52;2.03;;;1.93;;
19278;SDS011;9773;47.062;15.446;2022-12-11T11:20:24;1.80;;;1.70;;
19278;SDS011;9773;47.062;15.446;2022-12-11T11:22:57;1.90;;;1.80;;
19278;SDS011;9773;47.062;15.446;2022-12-11T11:25:28;1.70;;;1.70;;
19278;SDS011;9773;47.062;15.446;2022-12-11T11:27:59;2.03;;;1.93;;
19278;SDS011;9773;47.062;15.446;2022-12-11T11:30:37;2.50;;;2.30;;
19278;SDS011;9773;47.062;15.446;2022-12-11T11:33:14;2.20;;;2.10;;
19278;SDS011;9773;47.062;15.446;2022-12-11T11:35:50;2.47;;;2.27;;
19278;SDS011;9773;47.062;15.446;2022-12-11T11:38:25;1.97;;;1.87;;
19278;SDS011;9773;47.062;15.446;2022-12-11T11:41:12;1.93;;;1.83;;
19278;SDS011;9773;47.062;15.446;2022-12-11T11:43:48;1.87;;;1.77;;
19278;SDS011;9773;47.062;15.446;2022-12-11T11:47:01;2.07;;;1.97;;
19278;SDS011;9773;47.062;15.446;2022-12-11T11:54:33;2.13;;;2.03;;
19278;SDS011;9773;47.062;15.446;2022-12-11T11:59:52;2.40;;;2.20;;
19278;SDS011;9773;47.062;15.446;2022-12-11T12:02:20;1.90;;;1.80;;
19278;SDS011;9773;47.062;15.446;2022-12-11T12:04:46;2.17;;;2.00;;
19278;SDS011;9773;47.062;15.446;2022-12-11T12:19:48;2.30;;;2.17;;
19278;SDS011;9773;47.062;15.446;2022-12-11T12:24:46;2.30;;;2.20;;
19278;SDS011;9773;47.062;15.446;2022-12-11T12:28:20;2.67;;;2.03;;
19278;SDS011;9773;47.062;15.446;2022-12-11T12:30:35;1.90;;;1.80;;
19278;SDS011;9773;47.062;15.446;2022-12-11T12:38:52;1.97;;;1.87;;
19278;SDS011;9773;47.062;15.446;2022-12-11T12:44:22;1.70;;;1.70;;
19278;SDS011;9773;47.062;15.446;2022-12-11T12:47:02;2.00;;;1.90;;
19278;SDS011;9773;47.062;15.446;2022-12-11T12:49:44;2.07;;;1.97;;
19278;SDS011;9773;47.062;15.446;2022-12-11T12:52:17;2.17;;;1.87;;
19278;SDS011;9773;47.062;15.446;2022-12-11T12:54:59;2.27;;;1.77;;
19278;SDS011;9773;47.062;15.446;2022-12-11T12:57:52;1.87;;;1.77;;
19278;SDS011;9773;47.062;15.446;2022-12-11T13:00:34;2.07;;;1.97;;
19278;SDS011;9773;47.062;15.446;2022-12-11T13:03:21;2.03;;;1.93;;
19278;SDS011;9773;47.062;15.446;2022-12-11T13:05:54;2.03;;;1.83;;
19278;SDS011;9773;47.062;15.446;2022-12-11T13:08:40;2.17;;;2.07;;
19278;SDS011;9773;47.062;15.446;2022-12-11T13:11:15;1.80;;;1.70;;
19278;SDS011;9773;47.062;15.446;2022-12-11T13:13:47;1.80;;;1.70;;
19278;SDS011;9773;47.062;15.446;2022-12-11T13:16:37;1.73;;;1.63;;
19278;SDS011;9773;47.062;15.446;2022-12-11T13:22:02;1.70;;;1.60;;
19278;SDS011;9773;47.062;15.446;2022-12-11T13:24:45;2.00;;;1.90;;
19278;SDS011;9773;47.062;15.446;2022-12-11T13:27:23;1.90;;;1.80;;
19278;SDS011;9773;47.062;15.446;2022-12-11T13:35:28;1.40;;;1.37;;
19278;SDS011;9773;47.062;15.446;2022-12-11T13:37:57;1.73;;;1.70;;
19278;SDS011;9773;47.062;15.446;2022-12-11T13:40:36;1.60;;;1.50;;
19278;SDS011;9773;47.062;15.446;2022-12-11T13:43:06;2.10;;;2.00;;
19278;SDS011;9773;47.062;15.446;2022-12-11T13:45:50;2.00;;;1.90;;
19278;SDS011;9773;47.062;15.446;2022-12-11T13:48:28;2.30;;;2.00;;
19278;SDS011;9773;47.062;15.446;2022-12-11T13:51:17;1.90;;;1.80;;
19278;SDS011;9773;47.062;15.446;2022-12-11T13:53:45;1.67;;;1.53;;
19278;SDS011;9773;47.062;15.446;2022-12-11T13:56:17;1.77;;;1.67;;
19278;SDS011;9773;47.062;15.446;2022-12-11T13:58:45;1.80;;;1.70;;
19278;SDS011;9773;47.062;15.446;2022-12-11T14:01:15;2.03;;;1.70;;
19278;SDS011;9773;47.062;15.446;2022-12-11T14:04:06;1.97;;;1.87;;
19278;SDS011;9773;47.062;15.446;2022-12-11T14:06:35;1.30;;;1.30;;
19278;SDS011;9773;47.062;15.446;2022-12-11T14:09:04;1.97;;;1.87;;
19278;SDS011;9773;47.062;15.446;2022-12-11T14:11:39;1.60;;;1.60;;
19278;SDS011;9773;47.062;15.446;2022-12-11T14:14:07;1.40;;;1.40;;
19278;SDS011;9773;47.062;15.446;2022-12-11T14:16:48;1.90;;;1.80;;
19278;SDS011;9773;47.062;15.446;2022-12-11T14:19:16;2.00;;;1.90;;
19278;SDS011;9773;47.062;15.446;2022-12-11T14:21:56;2.00;;;1.90;;
19278;SDS011;9773;47.062;15.446;2022-12-11T14:24:24;1.73;;;1.63;;
19278;SDS011;9773;47.062;15.446;2022-12-11T14:26:51;2.10;;;2.00;;
19278;SDS011;9773;47.062;15.446;2022-12-11T14:29:22;1.70;;;1.60;;
19278;SDS011;9773;47.062;15.446;2022-12-11T14:31:53;1.43;;;1.43;;
19278;SDS011;9773;47.062;15.446;2022-12-11T14:34:25;1.67;;;1.57;;
19278;SDS011;9773;47.062;15.446;2022-12-11T14:37:01;1.70;;;1.60;;
19278;SDS011;9773;47.062;15.446;2022-12-11T14:39:32;2.20;;;2.10;;
19278;SDS011;9773;47.062;15.446;2022-12-11T14:42:06;2.03;;;1.87;;
19278;SDS011;9773;47.062;15.446;2022-12-11T14:47:46;1.60;;;1.60;;
19278;SDS011;9773;47.062;15.446;2022-12-11T14:50:26;2.40;;;1.70;;
19278;SDS011;9773;47.062;15.446;2022-12-11T14:53:01;2.10;;;2.00;;
19278;SDS011;9773;47.062;15.446;2022-12-11T14:55:37;1.97;;;1.87;;
19278;SDS011;9773;47.062;15.446;2022-12-11T14:58:05;1.83;;;1.73;;
19278;SDS011;9773;47.062;15.446;2022-12-11T15:00:42;3.50;;;1.80;;
19278;SDS011;9773;47.062;15.446;2022-12-11T15:05:46;2.03;;;1.87;;
19278;SDS011;9773;47.062;15.446;2022-12-11T15:08:16;1.50;;;1.50;;
19278;SDS011;9773;47.062;15.446;2022-12-11T15:10:56;1.98;;;1.88;;
19278;SDS011;9773;47.062;15.446;2022-12-11T15:13:27;1.90;;;1.80;;
19278;SDS011;9773;47.062;15.446;2022-12-11T15:15:54;1.70;;;1.60;;
19278;SDS011;9773;47.062;15.446;2022-12-11T15:18:26;1.80;;;1.70;;
19278;SDS011;9773;47.062;15.446;2022-12-11T15:21:01;1.93;;;1.80;;
19278;SDS011;9773;47.062;15.446;2022-12-11T15:23:31;1.80;;;1.70;;
19278;SDS011;9773;47.062;15.446;2022-12-11T15:26:11;5.90;;;4.03;;
19278;SDS011;9773;47.062;15.446;2022-12-11T15:28:40;2.33;;;2.13;;
19278;SDS011;9773;47.062;15.446;2022-12-11T15:33:57;1.80;;;1.70;;
19278;SDS011;9773;47.062;15.446;2022-12-11T15:36:34;7.43;;;2.07;;
19278;SDS011;9773;47.062;15.446;2022-12-11T15:39:02;1.70;;;1.60;;
19278;SDS011;9773;47.062;15.446;2022-12-11T15:41:29;1.90;;;1.80;;
19278;SDS011;9773;47.062;15.446;2022-12-11T15:43:58;1.77;;;1.57;;
19278;SDS011;9773;47.062;15.446;2022-12-11T15:46:28;2.00;;;1.90;;
19278;SDS011;9773;47.062;15.446;2022-12-11T15:48:55;1.60;;;1.50;;
19278;SDS011;9773;47.062;15.446;2022-12-11T15:51:21;1.80;;;1.73;;
19278;SDS011;9773;47.062;15.446;2022-12-11T15:53:49;1.93;;;1.83;;
19278;SDS011;9773;47.062;15.446;2022-12-11T15:56:15;1.30;;;1.30;;
19278;SDS011;9773;47.062;15.446;2022-12-11T15:58:41;2.17;;;2.07;;
19278;SDS011;9773;47.062;15.446;2022-12-11T16:01:09;2.00;;;1.90;;
19278;SDS011;9773;47.062;15.446;2022-12-11T16:03:36;1.90;;;1.80;;
19278;SDS011;9773;47.062;15.446;2022-12-11T16:06:02;2.10;;;1.97;;
19278;SDS011;9773;47.062;15.446;2022-12-11T16:08:28;2.10;;;2.00;;
19278;SDS011;9773;47.062;15.446;2022-12-11T16:10:54;1.60;;;1.60;;
19278;SDS011;9773;47.062;15.446;2022-12-11T16:13:21;1.70;;;1.60;;
19278;SDS011;9773;47.062;15.446;2022-12-11T16:15:48;1.70;;;1.53;;
19278;SDS011;9773;47.062;15.446;2022-12-11T16:18:20;2.47;;;2.27;;
19278;SDS011;9773;47.062;15.446;2022-12-11T16:20:48;2.10;;;2.00;;
19278;SDS011;9773;47.062;15.446;2022-12-11T16:23:15;2.47;;;2.23;;
19278;SDS011;9773;47.062;15.446;2022-12-11T16:25:41;2.30;;;2.20;;
19278;SDS011;9773;47.062;15.446;2022-12-11T16:28:10;3.60;;;2.03;;
19278;SDS011;9773;47.062;15.446;2022-12-11T16:30:39;2.10;;;2.00;;